createdAt,value
2018-12-21T00:00:42.655Z,18.75
2018-12-21T00:01:42.780Z,18.75
2018-12-21T00:02:44.786Z,18.75
2018-12-21T00:03:42.420Z,18.75
2018-12-21T00:04:42.438Z,18.75
2018-12-21T00:05:42.770Z,18.75
2018-12-21T00:06:42.456Z,18.75
2018-12-21T00:07:42.514Z,18.75
2018-12-21T00:08:42.358Z,18.75
2018-12-21T00:09:42.318Z,18.75
2018-12-21T00:10:42.627Z,18.75
2018-12-21T00:11:42.503Z,18.75
2018-12-21T00:12:42.722Z,18.75
2018-12-21T00:13:42.477Z,18.75
2018-12-21T00:14:42.538Z,18.75
2018-12-21T00:15:42.506Z,18.75
2018-12-21T00:16:42.984Z,18.75
2018-12-21T00:17:42.755Z,18.75
2018-12-21T00:18:42.707Z,18.75
2018-12-21T00:19:42.890Z,18.75
2018-12-21T00:20:42.771Z,18.75
2018-12-21T00:21:42.761Z,18.75
2018-12-21T00:22:42.588Z,18.75
2018-12-21T00:23:42.864Z,18.75
2018-12-21T00:24:42.394Z,18.75
2018-12-21T00:25:42.551Z,18.75
2018-12-21T00:26:42.713Z,18.75
2018-12-21T00:27:42.589Z,18.75
2018-12-21T00:28:42.422Z,18.75
2018-12-21T00:29:42.854Z,18.75
2018-12-21T00:30:42.332Z,18.5
2018-12-21T00:31:43.138Z,18.5
2018-12-21T00:32:42.241Z,18.5
2018-12-21T00:33:42.970Z,18.5
2018-12-21T00:34:42.890Z,18.5
2018-12-21T00:35:42.369Z,18.5
2018-12-21T00:36:42.447Z,18.5
2018-12-21T00:37:42.411Z,18.5
2018-12-21T00:38:43.074Z,18.5
2018-12-21T00:39:42.343Z,18.5
2018-12-21T00:40:42.923Z,18.5
2018-12-21T00:41:42.528Z,18.5
2018-12-21T00:42:42.488Z,18.5
2018-12-21T00:43:42.728Z,18.5
2018-12-21T00:44:42.831Z,18.5
2018-12-21T00:45:42.444Z,18.5
2018-12-21T00:46:42.357Z,18.5
2018-12-21T00:47:42.980Z,18.5
2018-12-21T00:48:42.673Z,18.5
2018-12-21T00:49:42.431Z,18.5
2018-12-21T00:50:42.994Z,18.5
2018-12-21T00:51:42.942Z,18.5
2018-12-21T00:52:42.776Z,18.5
2018-12-21T00:53:42.463Z,18.5
2018-12-21T00:54:42.361Z,18.5
2018-12-21T00:55:42.482Z,18.5
2018-12-21T00:56:42.754Z,18.5
2018-12-21T00:57:42.309Z,18.5
2018-12-21T00:58:42.442Z,18.5
2018-12-21T00:59:42.351Z,18.5
2018-12-21T01:00:42.657Z,18.5
2018-12-21T01:01:42.463Z,18.5
2018-12-21T01:02:42.877Z,18.5
2018-12-21T01:03:42.389Z,18.5
2018-12-21T01:04:42.333Z,18.5
2018-12-21T01:05:42.736Z,18.5
2018-12-21T01:06:42.360Z,18.5
2018-12-21T01:07:42.798Z,18.5
2018-12-21T01:08:42.348Z,18.5
2018-12-21T01:09:42.695Z,18.5
2018-12-21T01:10:42.478Z,18.5
2018-12-21T01:11:42.395Z,18.5
2018-12-21T01:12:42.346Z,18.5
2018-12-21T01:13:42.645Z,18.5
2018-12-21T01:14:42.788Z,18.5
2018-12-21T01:15:42.456Z,18.5
2018-12-21T01:16:42.542Z,18.5
2018-12-21T01:17:42.348Z,18.5
2018-12-21T01:18:42.789Z,18.5
2018-12-21T01:19:43.241Z,18.5
2018-12-21T01:20:42.810Z,18.5
2018-12-21T01:21:42.374Z,18.5
2018-12-21T01:22:42.363Z,18.5
2018-12-21T01:23:42.762Z,18.5
2018-12-21T01:24:42.402Z,18.5
2018-12-21T01:25:42.747Z,18.5
2018-12-21T01:26:42.377Z,18.5
2018-12-21T01:27:43.336Z,18.5
2018-12-21T01:28:42.639Z,18.5
2018-12-21T01:29:42.753Z,18.5
2018-12-21T01:30:42.554Z,18.5
2018-12-21T01:31:42.428Z,18.5
2018-12-21T01:32:42.512Z,18.5
2018-12-21T01:33:42.318Z,18.5
2018-12-21T01:34:42.828Z,18.5
2018-12-21T01:35:42.506Z,18.5
2018-12-21T01:36:42.392Z,18.5
2018-12-21T01:37:42.358Z,18.5
2018-12-21T01:38:42.408Z,18.5
2018-12-21T01:39:42.586Z,18.5
2018-12-21T01:40:42.373Z,18.5
2018-12-21T01:41:42.558Z,18.5
2018-12-21T01:42:42.739Z,18.5
2018-12-21T01:43:42.473Z,18.5
2018-12-21T01:44:42.343Z,18.5
2018-12-21T01:45:42.441Z,18.5
2018-12-21T01:46:42.568Z,18.5
2018-12-21T01:47:43.204Z,18.5
2018-12-21T01:48:42.280Z,18.5
2018-12-21T01:49:42.538Z,18.5
2018-12-21T01:50:42.617Z,18.5
2018-12-21T01:51:47.575Z,18.5
2018-12-21T01:52:42.497Z,18.5
2018-12-21T01:53:42.372Z,18.25
2018-12-21T01:54:42.470Z,18.5
2018-12-21T01:55:43.180Z,18.5
2018-12-21T01:56:42.760Z,18.5
2018-12-21T01:57:43.129Z,18.5
2018-12-21T01:58:42.425Z,18.25
2018-12-21T01:59:42.381Z,18.25
2018-12-21T02:00:42.769Z,18.25
2018-12-21T02:01:42.691Z,18.25
2018-12-21T02:02:42.287Z,18.25
2018-12-21T02:03:42.785Z,18.25
2018-12-21T02:04:42.717Z,18.25
2018-12-21T02:05:42.807Z,18.25
2018-12-21T02:06:42.565Z,18.25
2018-12-21T02:07:42.413Z,18.25
2018-12-21T02:08:42.297Z,18.25
2018-12-21T02:09:42.645Z,18.25
2018-12-21T02:10:42.303Z,18.25
2018-12-21T02:11:42.256Z,18.25
2018-12-21T02:12:42.667Z,18.25
2018-12-21T02:13:42.655Z,18.25
2018-12-21T02:14:42.589Z,18.25
2018-12-21T02:15:42.627Z,18.25
2018-12-21T02:16:42.422Z,18.25
2018-12-21T02:17:42.809Z,18.25
2018-12-21T02:18:42.713Z,18.25
2018-12-21T02:19:42.468Z,18.25
2018-12-21T02:20:42.372Z,18.25
2018-12-21T02:21:42.527Z,18.25
2018-12-21T02:22:42.448Z,18.25
2018-12-21T02:23:42.457Z,18.25
2018-12-21T02:24:42.718Z,18.25
2018-12-21T02:25:43.368Z,18.25
2018-12-21T02:26:42.288Z,18.25
2018-12-21T02:27:42.420Z,18.25
2018-12-21T02:28:42.431Z,18.25
2018-12-21T02:29:42.283Z,18.25
2018-12-21T02:30:42.348Z,18.25
2018-12-21T02:31:42.863Z,18.25
2018-12-21T02:32:43.421Z,18.25
2018-12-21T02:33:42.807Z,18.25
2018-12-21T02:34:42.459Z,18.25
2018-12-21T02:35:42.352Z,18.25
2018-12-21T02:36:42.451Z,18.25
2018-12-21T02:37:42.537Z,18.25
2018-12-21T02:38:42.368Z,18.25
2018-12-21T02:39:42.508Z,18.25
2018-12-21T02:40:42.602Z,18.25
2018-12-21T02:41:42.490Z,18.25
2018-12-21T02:42:42.327Z,18.25
2018-12-21T02:43:42.432Z,18.25
2018-12-21T02:44:42.323Z,18.25
2018-12-21T02:45:43.019Z,18.25
2018-12-21T02:46:42.223Z,18.25
2018-12-21T02:47:42.274Z,18.25
2018-12-21T02:48:42.296Z,18.25
2018-12-21T02:49:42.831Z,18.25
2018-12-21T02:50:42.539Z,18.25
2018-12-21T02:51:42.403Z,18.25
2018-12-21T02:52:42.547Z,18.25
2018-12-21T02:53:42.420Z,18.25
2018-12-21T02:54:42.479Z,18.25
2018-12-21T02:55:42.852Z,18.25
2018-12-21T02:56:42.214Z,18.25
2018-12-21T02:57:42.628Z,18.25
2018-12-21T02:58:42.718Z,18.25
2018-12-21T02:59:42.740Z,18.25
2018-12-21T03:00:42.364Z,18.25
2018-12-21T03:01:42.914Z,18.25
2018-12-21T03:02:42.343Z,18.25
2018-12-21T03:03:42.744Z,18.25
2018-12-21T03:04:43.286Z,18.25
2018-12-21T03:05:42.273Z,18.25
2018-12-21T03:06:42.234Z,18.25
2018-12-21T03:07:42.488Z,18.25
2018-12-21T03:08:42.544Z,18.25
2018-12-21T03:09:42.719Z,18.25
2018-12-21T03:10:42.272Z,18.25
2018-12-21T03:11:42.397Z,18.25
2018-12-21T03:12:42.718Z,18.25
2018-12-21T03:13:43.029Z,18.25
2018-12-21T03:14:43.147Z,18.25
2018-12-21T03:15:42.440Z,18.25
2018-12-21T03:16:42.707Z,18.25
2018-12-21T03:17:42.805Z,18.25
2018-12-21T03:18:42.294Z,18.25
2018-12-21T03:19:42.483Z,18.25
2018-12-21T03:20:42.569Z,18.25
2018-12-21T03:21:42.472Z,18.25
2018-12-21T03:22:42.478Z,18.25
2018-12-21T03:23:42.476Z,18.25
2018-12-21T03:24:42.712Z,18.25
2018-12-21T03:25:42.420Z,18.25
2018-12-21T03:26:42.434Z,18.25
2018-12-21T03:27:42.608Z,18.25
2018-12-21T03:28:42.318Z,18.25
2018-12-21T03:29:42.991Z,18.25
2018-12-21T03:30:42.858Z,18.25
2018-12-21T03:31:42.740Z,18.25
2018-12-21T03:32:42.365Z,18.25
2018-12-21T03:33:42.674Z,18.25
2018-12-21T03:34:42.659Z,18.25
2018-12-21T03:35:42.533Z,18.25
2018-12-21T03:36:42.916Z,18.25
2018-12-21T03:37:42.889Z,18.25
2018-12-21T03:38:42.626Z,18.25
2018-12-21T03:39:42.789Z,18.25
2018-12-21T03:40:43.187Z,18.25
2018-12-21T03:41:42.215Z,18.25
2018-12-21T03:42:43.171Z,18.25
2018-12-21T03:43:42.319Z,18
2018-12-21T03:44:42.203Z,18.25
2018-12-21T03:45:42.634Z,18.25
2018-12-21T03:46:42.451Z,18.25
2018-12-21T03:47:42.647Z,18
2018-12-21T03:48:42.745Z,18
2018-12-21T03:49:42.557Z,18
2018-12-21T03:50:42.515Z,18
2018-12-21T03:51:42.263Z,18
2018-12-21T03:52:42.733Z,18
2018-12-21T03:53:42.319Z,18
2018-12-21T03:54:42.687Z,18
2018-12-21T03:55:42.209Z,18
2018-12-21T03:56:42.411Z,18
2018-12-21T03:57:42.580Z,18
2018-12-21T03:58:42.277Z,18
2018-12-21T03:59:42.223Z,18
2018-12-21T04:00:42.589Z,18
2018-12-21T04:01:42.745Z,18
2018-12-21T04:02:42.289Z,18
2018-12-21T04:03:42.818Z,18
2018-12-21T04:04:42.582Z,18
2018-12-21T04:05:42.394Z,18
2018-12-21T04:06:42.263Z,18
2018-12-21T04:07:42.895Z,18
2018-12-21T04:08:42.250Z,18
2018-12-21T04:09:42.411Z,18
2018-12-21T04:10:42.460Z,18
2018-12-21T04:11:42.279Z,18
2018-12-21T04:12:42.733Z,18
2018-12-21T04:13:42.374Z,18
2018-12-21T04:14:42.391Z,18
2018-12-21T04:15:42.584Z,18
2018-12-21T04:16:42.376Z,18
2018-12-21T04:17:42.166Z,18
2018-12-21T04:18:42.414Z,18
2018-12-21T04:19:42.228Z,18
2018-12-21T04:20:42.386Z,18
2018-12-21T04:21:42.685Z,18
2018-12-21T04:22:42.313Z,18
2018-12-21T04:23:42.476Z,18
2018-12-21T04:24:42.204Z,18
2018-12-21T04:25:42.702Z,18
2018-12-21T04:26:42.406Z,18
2018-12-21T04:27:42.426Z,18
2018-12-21T04:28:42.246Z,18
2018-12-21T04:29:42.347Z,18
2018-12-21T04:30:42.493Z,18
2018-12-21T04:31:42.543Z,18
2018-12-21T04:32:42.363Z,18
2018-12-21T04:33:42.241Z,18
2018-12-21T04:34:42.499Z,18
2018-12-21T04:35:42.518Z,18
2018-12-21T04:36:42.612Z,18
2018-12-21T04:37:42.374Z,18
2018-12-21T04:38:42.269Z,18
2018-12-21T04:39:42.795Z,18
2018-12-21T04:40:42.715Z,18
2018-12-21T04:41:42.219Z,18
2018-12-21T04:42:42.340Z,18
2018-12-21T04:43:42.276Z,18
2018-12-21T04:44:42.283Z,18
2018-12-21T04:45:42.662Z,18
2018-12-21T04:46:42.133Z,18
2018-12-21T04:47:42.517Z,18
2018-12-21T04:48:43.267Z,18
2018-12-21T04:49:42.311Z,18
2018-12-21T04:50:42.578Z,18
2018-12-21T04:51:43.192Z,18
2018-12-21T04:52:43.859Z,18
2018-12-21T04:53:42.425Z,18
2018-12-21T04:54:42.824Z,18
2018-12-21T04:55:42.627Z,18
2018-12-21T04:56:43.029Z,18
2018-12-21T04:57:42.744Z,18
2018-12-21T04:58:42.832Z,18
2018-12-21T04:59:42.747Z,18
2018-12-21T05:00:42.295Z,18
2018-12-21T05:01:42.503Z,18
2018-12-21T05:02:42.447Z,18
2018-12-21T05:03:42.669Z,18
2018-12-21T05:04:42.100Z,18
2018-12-21T05:05:42.622Z,18
2018-12-21T05:06:42.998Z,18
2018-12-21T05:07:42.340Z,18
2018-12-21T05:08:42.436Z,18.25
2018-12-21T05:09:42.232Z,18.25
2018-12-21T05:10:42.391Z,18.25
2018-12-21T05:11:42.249Z,18.25
2018-12-21T05:12:42.547Z,18.25
2018-12-21T05:13:42.177Z,18.25
2018-12-21T05:14:42.528Z,18.25
2018-12-21T05:15:42.402Z,18.25
2018-12-21T05:16:42.284Z,18.25
2018-12-21T05:17:42.700Z,18.25
2018-12-21T05:18:42.194Z,18.25
2018-12-21T05:19:42.508Z,18.25
2018-12-21T05:20:42.209Z,18.25
2018-12-21T05:21:42.379Z,18.25
2018-12-21T05:22:42.376Z,18.25
2018-12-21T05:23:42.296Z,18.25
2018-12-21T05:24:42.844Z,18.25
2018-12-21T05:25:42.313Z,18.25
2018-12-21T05:26:42.891Z,18.25
2018-12-21T05:27:42.159Z,18.25
2018-12-21T05:28:42.278Z,18.5
2018-12-21T05:29:42.402Z,18.5
2018-12-21T05:30:42.439Z,18.5
2018-12-21T05:31:42.346Z,18.5
2018-12-21T05:32:42.870Z,18.5
2018-12-21T05:33:42.798Z,18.5
2018-12-21T05:34:42.744Z,18.5
2018-12-21T05:35:42.294Z,18.5
2018-12-21T05:36:42.144Z,18.5
2018-12-21T05:37:42.520Z,18.5
2018-12-21T05:38:42.440Z,18.5
2018-12-21T05:39:42.413Z,18.5
2018-12-21T05:40:42.424Z,18.5
2018-12-21T05:41:42.280Z,18.5
2018-12-21T05:42:42.541Z,18.5
2018-12-21T05:43:42.196Z,18.5
2018-12-21T05:44:42.551Z,18.5
2018-12-21T05:45:42.699Z,18.5
2018-12-21T05:46:42.367Z,18.5
2018-12-21T05:47:42.044Z,18.5
2018-12-21T05:48:42.723Z,18.5
2018-12-21T05:49:42.321Z,18.5
2018-12-21T05:50:42.818Z,18.5
2018-12-21T05:51:42.383Z,18.5
2018-12-21T05:52:42.319Z,18.75
2018-12-21T05:53:42.425Z,18.75
2018-12-21T05:54:42.455Z,18.75
2018-12-21T05:55:42.299Z,18.75
2018-12-21T05:56:42.332Z,18.75
2018-12-21T05:57:42.302Z,18.75
2018-12-21T05:58:42.343Z,18.75
2018-12-21T05:59:42.554Z,18.75
2018-12-21T06:00:42.764Z,18.75
2018-12-21T06:01:42.327Z,18.75
2018-12-21T06:02:42.773Z,18.75
2018-12-21T06:03:42.250Z,18.75
2018-12-21T06:04:42.487Z,18.75
2018-12-21T06:05:42.126Z,18.75
2018-12-21T06:06:42.288Z,18.75
2018-12-21T06:07:42.280Z,18.75
2018-12-21T06:08:42.420Z,18.75
2018-12-21T06:09:42.734Z,18.75
2018-12-21T06:10:42.326Z,18.75
2018-12-21T06:11:42.922Z,18.75
2018-12-21T06:12:42.535Z,18.75
2018-12-21T06:13:42.546Z,18.75
2018-12-21T06:14:42.246Z,18.75
2018-12-21T06:15:42.412Z,18.75
2018-12-21T06:16:42.131Z,18.75
2018-12-21T06:17:42.378Z,18.75
2018-12-21T06:18:42.182Z,19
2018-12-21T06:19:42.495Z,19
2018-12-21T06:20:42.436Z,19
2018-12-21T06:21:42.370Z,19
2018-12-21T06:22:42.301Z,19
2018-12-21T06:23:42.519Z,19
2018-12-21T06:24:42.215Z,19
2018-12-21T06:25:43.429Z,19
2018-12-21T06:26:42.749Z,19
2018-12-21T06:27:42.445Z,19
2018-12-21T06:28:42.570Z,19
2018-12-21T06:29:42.465Z,19
2018-12-21T06:30:42.321Z,19
2018-12-21T06:31:43.010Z,19
2018-12-21T06:32:42.473Z,19
2018-12-21T06:33:42.511Z,19
2018-12-21T06:34:42.114Z,19
2018-12-21T06:35:42.346Z,19
2018-12-21T06:36:42.110Z,19
2018-12-21T06:37:42.635Z,19
2018-12-21T06:38:43.034Z,19
2018-12-21T06:39:42.921Z,19
2018-12-21T06:40:42.390Z,19
2018-12-21T06:41:42.451Z,19
2018-12-21T06:42:42.567Z,19
2018-12-21T06:43:42.803Z,19
2018-12-21T06:44:42.209Z,19
2018-12-21T06:45:42.416Z,19
2018-12-21T06:46:42.652Z,19
2018-12-21T06:47:43.041Z,19.25
2018-12-21T06:48:42.104Z,19.25
2018-12-21T06:49:42.340Z,19.25
2018-12-21T06:50:42.590Z,19.25
2018-12-21T06:51:42.326Z,19.25
2018-12-21T06:52:42.846Z,19.25
2018-12-21T06:53:42.551Z,19.25
2018-12-21T06:54:42.627Z,19.25
2018-12-21T06:55:42.543Z,19.25
2018-12-21T06:56:42.338Z,19.25
2018-12-21T06:57:42.126Z,19.25
2018-12-21T06:58:42.368Z,19.25
2018-12-21T06:59:42.203Z,19.25
2018-12-21T07:00:42.280Z,19.25
2018-12-21T07:01:42.678Z,19.25
2018-12-21T07:02:42.191Z,19.25
2018-12-21T07:03:42.718Z,19.25
2018-12-21T07:04:42.317Z,19.25
2018-12-21T07:05:42.632Z,19.25
2018-12-21T07:06:42.233Z,19.25
2018-12-21T07:07:42.286Z,19.25
2018-12-21T07:08:42.402Z,19.25
2018-12-21T07:09:42.110Z,19.5
2018-12-21T07:10:42.368Z,19.5
2018-12-21T07:11:42.200Z,19.5
2018-12-21T07:12:42.587Z,19.5
2018-12-21T07:13:42.711Z,19.5
2018-12-21T07:14:42.286Z,19.5
2018-12-21T07:15:42.984Z,19.5
2018-12-21T07:16:42.244Z,19.5
2018-12-21T07:17:42.128Z,19.5
2018-12-21T07:18:42.528Z,19.5
2018-12-21T07:19:42.429Z,19.5
2018-12-21T07:20:42.423Z,19.5
2018-12-21T07:21:42.366Z,19.5
2018-12-21T07:22:42.218Z,19.5
2018-12-21T07:23:42.786Z,19.5
2018-12-21T07:24:42.136Z,19.5
2018-12-21T07:25:42.368Z,19.5
2018-12-21T07:26:42.177Z,19.5
2018-12-21T07:27:42.288Z,19.5
2018-12-21T07:28:42.163Z,19.5
2018-12-21T07:29:42.080Z,19.5
2018-12-21T07:30:42.434Z,19.5
2018-12-21T07:31:42.221Z,19.5
2018-12-21T07:32:42.350Z,19.5
2018-12-21T07:33:42.284Z,19.5
2018-12-21T07:34:42.237Z,19.5
2018-12-21T07:35:43.045Z,19.5
2018-12-21T07:36:42.736Z,19.5
2018-12-21T07:37:42.285Z,19.5
2018-12-21T07:38:42.240Z,19.5
2018-12-21T07:39:42.128Z,19.5
2018-12-21T07:40:42.226Z,19.5
2018-12-21T07:41:42.406Z,19.5
2018-12-21T07:42:42.471Z,19.5
2018-12-21T07:43:42.355Z,19.5
2018-12-21T07:44:42.215Z,19.5
2018-12-21T07:45:42.370Z,19.5
2018-12-21T07:46:42.392Z,19.5
2018-12-21T07:47:42.220Z,19.5
2018-12-21T07:48:42.385Z,19.5
2018-12-21T07:49:42.412Z,19.5
2018-12-21T07:50:42.383Z,19.5
2018-12-21T07:51:42.338Z,19.5
2018-12-21T07:52:42.228Z,19.5
2018-12-21T07:53:42.240Z,19.5
2018-12-21T07:54:42.471Z,19.5
2018-12-21T07:55:42.315Z,19.5
2018-12-21T07:56:42.222Z,19.5
2018-12-21T07:57:42.269Z,19.5
2018-12-21T07:58:42.136Z,19.5
2018-12-21T07:59:42.342Z,19.5
2018-12-21T08:00:42.148Z,19.5
2018-12-21T08:01:42.250Z,19.5
2018-12-21T08:02:42.200Z,19.5
2018-12-21T08:03:42.716Z,19.5
2018-12-21T08:04:42.710Z,19.5
2018-12-21T08:05:42.717Z,19.5
2018-12-21T08:06:42.706Z,19.5
2018-12-21T08:07:42.180Z,19.5
2018-12-21T08:08:42.547Z,19.5
2018-12-21T08:09:42.215Z,19.5
2018-12-21T08:10:42.458Z,19.5
2018-12-21T08:11:42.687Z,19.5
2018-12-21T08:12:42.363Z,19.5
2018-12-21T08:13:42.683Z,19.5
2018-12-21T08:14:42.266Z,19.5
2018-12-21T08:15:43.222Z,19.5
2018-12-21T08:16:42.554Z,19.5
2018-12-21T08:17:42.274Z,19.5
2018-12-21T08:18:42.341Z,19.5
2018-12-21T08:19:42.543Z,19.5
2018-12-21T08:20:42.386Z,19.5
2018-12-21T08:21:42.350Z,19.5
2018-12-21T08:22:42.853Z,19.5
2018-12-21T08:23:44.750Z,19.5
2018-12-21T08:24:42.473Z,19.5
2018-12-21T08:25:42.765Z,19.5
2018-12-21T08:26:42.388Z,19.5
2018-12-21T08:27:42.510Z,19.5
2018-12-21T08:28:42.045Z,19.5
2018-12-21T08:29:42.735Z,19.5
2018-12-21T08:30:42.212Z,19.5
2018-12-21T08:31:42.177Z,19.5
2018-12-21T08:32:42.170Z,19.5
2018-12-21T08:33:42.267Z,19.5
2018-12-21T08:34:42.589Z,19.5
2018-12-21T08:35:42.443Z,19.5
2018-12-21T08:36:42.367Z,19.5
2018-12-21T08:37:42.555Z,19.5
2018-12-21T08:38:42.474Z,19.5
2018-12-21T08:39:42.452Z,19.5
2018-12-21T08:40:42.885Z,19.5
2018-12-21T08:41:42.147Z,19.5
2018-12-21T08:42:42.819Z,19.5
2018-12-21T08:43:42.213Z,19.5
2018-12-21T08:44:42.672Z,19.5
2018-12-21T08:45:42.392Z,19.5
2018-12-21T08:46:42.366Z,19.5
2018-12-21T08:47:42.270Z,19.5
2018-12-21T08:48:42.199Z,19.5
2018-12-21T08:49:42.359Z,19.5
2018-12-21T08:50:41.992Z,19.5
2018-12-21T08:51:42.669Z,19.5
2018-12-21T08:52:42.712Z,19.5
2018-12-21T08:53:42.363Z,19.5
2018-12-21T08:54:42.469Z,19.5
2018-12-21T08:55:42.138Z,19.5
2018-12-21T08:56:42.243Z,19.5
2018-12-21T08:57:42.346Z,19.5
2018-12-21T08:58:42.261Z,19.5
2018-12-21T08:59:42.983Z,19.5
2018-12-21T09:00:42.721Z,19.5
2018-12-21T09:01:42.264Z,19.5
2018-12-21T09:02:42.119Z,19.5
2018-12-21T09:03:42.263Z,19.5
2018-12-21T09:04:42.738Z,19.5
2018-12-21T09:05:42.683Z,19.5
2018-12-21T09:06:42.275Z,19.5
2018-12-21T09:07:42.209Z,19.5
2018-12-21T09:08:41.956Z,19.5
2018-12-21T09:09:42.168Z,19.5
2018-12-21T09:10:42.905Z,19.5
2018-12-21T09:11:42.538Z,19.5
2018-12-21T09:12:42.252Z,19.5
2018-12-21T09:13:42.309Z,19.5
2018-12-21T09:14:42.353Z,19.5
2018-12-21T09:15:42.721Z,19.75
2018-12-21T09:16:42.631Z,19.75
2018-12-21T09:17:42.259Z,19.75
2018-12-21T09:18:42.542Z,19.75
2018-12-21T09:19:42.459Z,19.75
2018-12-21T09:20:42.396Z,19.75
2018-12-21T09:21:42.463Z,19.75
2018-12-21T09:22:42.377Z,19.75
2018-12-21T09:23:42.152Z,19.75
2018-12-21T09:24:42.374Z,19.75
2018-12-21T09:25:42.165Z,19.75
2018-12-21T09:26:42.029Z,19.75
2018-12-21T09:27:42.132Z,19.75
2018-12-21T09:28:42.436Z,19.75
2018-12-21T09:29:42.739Z,19.75
2018-12-21T09:30:42.857Z,19.75
2018-12-21T09:31:42.212Z,19.75
2018-12-21T09:32:42.176Z,19.75
2018-12-21T09:33:42.690Z,19.75
2018-12-21T09:34:42.418Z,19.75
2018-12-21T09:35:42.361Z,19.75
2018-12-21T09:36:43.279Z,19.75
2018-12-21T09:37:42.281Z,19.75
2018-12-21T09:38:42.235Z,19.75
2018-12-21T09:39:42.228Z,19.75
2018-12-21T09:40:42.620Z,19.75
2018-12-21T09:41:42.160Z,19.75
2018-12-21T09:42:42.412Z,19.75
2018-12-21T09:43:42.719Z,19.75
2018-12-21T09:44:42.019Z,19.75
2018-12-21T09:45:42.770Z,19.75
2018-12-21T09:46:42.632Z,19.75
2018-12-21T09:47:42.528Z,19.75
2018-12-21T09:48:42.106Z,19.75
2018-12-21T09:49:42.321Z,19.75
2018-12-21T09:50:42.567Z,19.75
2018-12-21T09:51:42.601Z,19.75
2018-12-21T09:52:42.350Z,19.75
2018-12-21T09:53:42.005Z,19.75
2018-12-21T09:54:42.469Z,19.75
2018-12-21T09:55:43.341Z,19.75
2018-12-21T09:56:42.130Z,19.75
2018-12-21T09:57:42.301Z,20
2018-12-21T09:58:42.448Z,19.75
2018-12-21T09:59:42.261Z,19.75
2018-12-21T10:00:42.465Z,19.75
2018-12-21T10:01:42.319Z,20
2018-12-21T10:02:42.351Z,20
2018-12-21T10:03:42.860Z,20
2018-12-21T10:04:42.764Z,20
2018-12-21T10:05:42.316Z,20
2018-12-21T10:06:42.478Z,20
2018-12-21T10:07:42.177Z,20
2018-12-21T10:08:42.724Z,20
2018-12-21T10:09:42.260Z,20
2018-12-21T10:10:42.403Z,20
2018-12-21T10:11:42.096Z,20
2018-12-21T10:12:42.268Z,20
2018-12-21T10:13:42.287Z,20
2018-12-21T10:14:42.161Z,20
2018-12-21T10:15:42.270Z,20
2018-12-21T10:16:42.450Z,20
2018-12-21T10:17:42.469Z,20
2018-12-21T10:18:42.540Z,20
2018-12-21T10:19:42.593Z,20
2018-12-21T10:20:42.178Z,20
2018-12-21T10:21:42.208Z,20
2018-12-21T10:22:42.301Z,20
2018-12-21T10:23:42.148Z,20
2018-12-21T10:24:42.412Z,20
2018-12-21T10:25:42.898Z,20
2018-12-21T10:26:42.367Z,20
2018-12-21T10:27:42.196Z,20
2018-12-21T10:28:42.359Z,20
2018-12-21T10:29:42.463Z,20
2018-12-21T10:30:42.038Z,20
2018-12-21T10:31:42.147Z,20
2018-12-21T10:32:42.062Z,20
2018-12-21T10:33:42.488Z,20
2018-12-21T10:34:42.220Z,20
2018-12-21T10:35:42.791Z,20
2018-12-21T10:36:43.027Z,20
2018-12-21T10:37:42.314Z,20
2018-12-21T10:38:42.122Z,20
2018-12-21T10:39:42.357Z,20
2018-12-21T10:40:42.716Z,20
2018-12-21T10:41:42.230Z,20
2018-12-21T10:42:42.115Z,20
2018-12-21T10:43:42.308Z,20
2018-12-21T10:44:43.011Z,20
2018-12-21T10:45:42.210Z,20
2018-12-21T10:46:42.536Z,20
2018-12-21T10:47:42.298Z,20
2018-12-21T10:48:42.606Z,20
2018-12-21T10:49:42.119Z,20
2018-12-21T10:50:42.395Z,20
2018-12-21T10:51:42.213Z,20
2018-12-21T10:52:42.426Z,20
2018-12-21T10:53:42.073Z,20
2018-12-21T10:54:42.222Z,20
2018-12-21T10:55:42.367Z,20
2018-12-21T10:56:41.927Z,20
2018-12-21T10:57:42.583Z,20
2018-12-21T10:58:42.053Z,20
2018-12-21T10:59:43.926Z,20
2018-12-21T11:00:42.244Z,20
2018-12-21T11:01:42.174Z,20
2018-12-21T11:02:42.423Z,20
2018-12-21T11:03:42.187Z,20
2018-12-21T11:04:42.582Z,20
2018-12-21T11:05:43.198Z,20
2018-12-21T11:06:42.203Z,20
2018-12-21T11:07:42.080Z,20
2018-12-21T11:08:42.322Z,20
2018-12-21T11:09:42.876Z,20
2018-12-21T11:10:42.062Z,20
2018-12-21T11:11:42.297Z,20
2018-12-21T11:12:42.060Z,20
2018-12-21T11:13:42.287Z,20
2018-12-21T11:14:42.026Z,20
2018-12-21T11:15:42.209Z,20
2018-12-21T11:16:42.117Z,20
2018-12-21T11:17:44.266Z,20
2018-12-21T11:18:42.422Z,20
2018-12-21T11:19:42.294Z,20
2018-12-21T11:20:42.045Z,20
2018-12-21T11:21:42.949Z,20
2018-12-21T11:22:42.179Z,20
2018-12-21T11:23:42.226Z,20
2018-12-21T11:24:42.029Z,20
2018-12-21T11:25:42.430Z,20
2018-12-21T11:26:43.417Z,20
2018-12-21T11:27:42.368Z,20
2018-12-21T11:28:42.456Z,20
2018-12-21T11:29:42.606Z,20
2018-12-21T11:30:42.317Z,20
2018-12-21T11:31:42.140Z,20
2018-12-21T11:32:42.477Z,20
2018-12-21T11:33:43.684Z,20
2018-12-21T11:34:42.126Z,20
2018-12-21T11:35:42.485Z,20
2018-12-21T11:36:42.228Z,20
2018-12-21T11:37:42.803Z,20
2018-12-21T11:38:42.188Z,20
2018-12-21T11:39:42.395Z,20
2018-12-21T11:40:42.672Z,20
2018-12-21T11:41:42.665Z,20
2018-12-21T11:42:42.355Z,20
2018-12-21T11:43:42.432Z,20
2018-12-21T11:44:42.171Z,20
2018-12-21T11:45:42.968Z,20
2018-12-21T11:46:42.636Z,20
2018-12-21T11:47:42.525Z,20
2018-12-21T11:48:42.663Z,20
2018-12-21T11:49:42.640Z,20
2018-12-21T11:50:42.301Z,20
2018-12-21T11:51:42.468Z,20
2018-12-21T11:52:42.217Z,20
2018-12-21T11:53:42.231Z,20
2018-12-21T11:54:44.680Z,20
2018-12-21T11:55:42.625Z,20
2018-12-21T11:56:42.396Z,20
2018-12-21T11:57:42.202Z,20
2018-12-21T11:58:42.490Z,20
2018-12-21T11:59:45.392Z,20
2018-12-21T12:00:42.221Z,20
2018-12-21T12:01:42.536Z,20
2018-12-21T12:02:43.115Z,20
2018-12-21T12:03:42.651Z,20
2018-12-21T12:04:42.170Z,20
2018-12-21T12:05:42.939Z,20
2018-12-21T12:06:42.110Z,20
2018-12-21T12:07:41.950Z,20
2018-12-21T12:08:42.439Z,20
2018-12-21T12:09:42.959Z,20
2018-12-21T12:10:42.297Z,20
2018-12-21T12:11:42.654Z,20
2018-12-21T12:12:42.054Z,20
2018-12-21T12:13:42.092Z,20
2018-12-21T12:14:42.378Z,20
2018-12-21T12:15:42.402Z,20
2018-12-21T12:16:42.620Z,20
2018-12-21T12:17:42.427Z,20
2018-12-21T12:18:42.917Z,20
2018-12-21T12:19:42.296Z,20
2018-12-21T12:20:42.204Z,20
2018-12-21T12:21:42.062Z,20
2018-12-21T12:22:42.320Z,20
2018-12-21T12:23:42.315Z,20
2018-12-21T12:24:42.066Z,20
2018-12-21T12:25:42.105Z,20
2018-12-21T12:26:44.797Z,20
2018-12-21T12:27:42.191Z,20
2018-12-21T12:28:42.279Z,20
2018-12-21T12:29:42.125Z,20
2018-12-21T12:30:42.496Z,20
2018-12-21T12:31:43.185Z,20
2018-12-21T12:32:42.259Z,20
2018-12-21T12:33:42.456Z,20
2018-12-21T12:34:41.951Z,20
2018-12-21T12:35:42.521Z,20
2018-12-21T12:36:42.355Z,20
2018-12-21T12:37:42.769Z,20
2018-12-21T12:38:42.041Z,20
2018-12-21T12:39:42.276Z,20
2018-12-21T12:40:42.036Z,20
2018-12-21T12:41:42.277Z,20
2018-12-21T12:42:42.360Z,20
2018-12-21T12:43:42.174Z,20
2018-12-21T12:44:42.422Z,20
2018-12-21T12:45:42.112Z,20
2018-12-21T12:46:42.752Z,20
2018-12-21T12:47:42.091Z,20
2018-12-21T12:48:42.157Z,20
2018-12-21T12:49:42.029Z,20
2018-12-21T12:50:42.031Z,20
2018-12-21T12:51:42.049Z,20
2018-12-21T12:52:42.321Z,20
2018-12-21T12:53:42.250Z,20
2018-12-21T12:54:42.253Z,20
2018-12-21T12:55:42.167Z,20
2018-12-21T12:56:42.313Z,20
2018-12-21T12:57:42.388Z,20
2018-12-21T12:58:41.906Z,20
2018-12-21T12:59:42.076Z,20
2018-12-21T13:00:42.445Z,20
2018-12-21T13:01:42.586Z,20
2018-12-21T13:02:42.214Z,20
2018-12-21T13:03:42.395Z,20
2018-12-21T13:04:42.326Z,20
2018-12-21T13:05:42.092Z,20
2018-12-21T13:06:42.666Z,20
2018-12-21T13:07:42.755Z,20
2018-12-21T13:08:42.964Z,20
2018-12-21T13:09:42.460Z,20
2018-12-21T13:10:42.400Z,20
2018-12-21T13:11:42.156Z,20
2018-12-21T13:12:42.018Z,20
2018-12-21T13:13:42.439Z,20
2018-12-21T13:14:42.228Z,20
2018-12-21T13:15:42.350Z,20
2018-12-21T13:16:42.153Z,20
2018-12-21T13:17:42.549Z,20
2018-12-21T13:18:42.538Z,20
2018-12-21T13:19:42.088Z,20
2018-12-21T13:20:42.062Z,20
2018-12-21T13:21:42.082Z,20
2018-12-21T13:22:42.277Z,20
2018-12-21T13:23:43.052Z,20
2018-12-21T13:24:42.631Z,20
2018-12-21T13:25:42.177Z,20
2018-12-21T13:26:42.024Z,20
2018-12-21T13:27:42.466Z,20
2018-12-21T13:28:42.209Z,20
2018-12-21T13:29:42.202Z,20
2018-12-21T13:30:42.439Z,20
2018-12-21T13:31:41.951Z,20